Location Sebastian, FL, US

ob KFLSEBAS1 140225Z AUTO 26000KT CLR 11/06 A3008 RMK SLPNO 

2017.12.14 0225 UTC
Wind from the WSW (262 degrees) at Calm MPH ( KT) gusting to 0.0 MPH (0 KT)
Visibility    Mile(s)
Sky Conditions  clear
Temperature 51.50 F (11 C)
Dew Point 42.05 F (6 C)
Relative Humidity 70%
Pressure   30.08 in. Hg (1019 hPa)
Rain  0.00 in.
Daily Rain  in.

Station Name  www.kflsebas1.com
Longitude, Latitude  -80.48, 27.8
Elevation 23
Station URL www.kflsebas1.com
Software Type VWS V15.00